createdAt,value
2023-04-17T00:01:16.607Z,69.43
2023-04-17T00:03:48.719Z,69.91
2023-04-17T00:06:27.342Z,70.12
2023-04-17T00:09:19.644Z,70.37
2023-04-17T00:11:53.037Z,70.42
2023-04-17T00:14:29.695Z,70.50
2023-04-17T00:17:26.245Z,70.49
2023-04-17T00:20:22.248Z,70.54
2023-04-17T00:23:02.261Z,70.40
2023-04-17T00:25:45.492Z,70.96
2023-04-17T00:28:27.691Z,71.16
2023-04-17T00:31:16.769Z,71.56
2023-04-17T00:40:21.149Z,71.37
2023-04-17T00:42:55.809Z,71.66
2023-04-17T00:45:32.869Z,71.61
2023-04-17T00:51:07.301Z,71.02
2023-04-17T00:54:04.243Z,70.38
2023-04-17T00:56:53.366Z,68.28
2023-04-17T00:59:51.441Z,66.15
2023-04-17T01:02:54.567Z,64.94
2023-04-17T01:05:35.395Z,63.94
2023-04-17T01:08:42.130Z,63.00
2023-04-17T01:15:12.486Z,60.92
2023-04-17T01:21:58.409Z,60.26
2023-04-17T01:31:09.514Z,57.61
2023-04-17T01:40:55.698Z,55.34
2023-04-17T01:51:04.069Z,54.45
2023-04-17T01:53:40.445Z,54.68
2023-04-17T01:56:13.489Z,54.82
2023-04-17T02:05:38.715Z,55.14
2023-04-17T02:08:40.543Z,55.16
2023-04-17T02:11:26.529Z,55.36
2023-04-17T02:14:20.446Z,55.13
2023-04-17T02:17:11.205Z,54.73
2023-04-17T02:20:24.001Z,54.17
2023-04-17T02:27:07.626Z,54.08
2023-04-17T02:33:17.307Z,54.33
2023-04-17T02:35:49.209Z,54.38
2023-04-17T02:38:35.301Z,54.20
2023-04-17T02:41:09.662Z,54.47
2023-04-17T02:44:05.947Z,54.62
2023-04-17T02:47:19.865Z,55.28
2023-04-17T02:53:37.443Z,57.24
2023-04-17T02:56:20.800Z,58.10
2023-04-17T02:59:20.672Z,58.89
2023-04-17T03:02:28.207Z,59.10
2023-04-17T03:05:34.349Z,58.98
2023-04-17T03:08:20.608Z,59.29
2023-04-17T03:11:15.200Z,59.93
2023-04-17T03:14:01.506Z,60.27
2023-04-17T03:33:44.145Z,59.75
2023-04-17T03:36:27.627Z,59.51
2023-04-17T03:39:13.945Z,59.55
2023-04-17T03:42:18.077Z,59.78
2023-04-17T03:45:13.985Z,59.77
2023-04-17T03:48:36.852Z,59.60
2023-04-17T03:51:37.522Z,59.93
2023-04-17T04:02:07.306Z,59.74
2023-04-17T04:10:55.081Z,59.66
2023-04-17T04:13:48.972Z,58.94
2023-04-17T04:16:54.646Z,57.77
2023-04-17T04:19:41.314Z,57.59
2023-04-17T04:22:37.173Z,57.41
2023-04-17T04:32:34.305Z,57.09
2023-04-17T04:40:50.230Z,56.84
2023-04-17T04:44:15.406Z,56.77
2023-04-17T04:47:49.675Z,56.80
2023-04-17T04:55:04.642Z,56.63
2023-04-17T05:06:46.619Z,55.70
2023-04-17T05:09:37.824Z,55.88
2023-04-17T05:12:35.791Z,56.02
2023-04-17T05:15:16.307Z,55.56
2023-04-17T05:24:17.127Z,54.73
2023-04-17T05:28:18.403Z,53.93
2023-04-17T05:31:25.721Z,53.29
2023-04-17T05:34:00.519Z,52.67
2023-04-17T05:37:03.430Z,52.66
2023-04-17T05:40:15.631Z,52.88
2023-04-17T05:43:18.276Z,53.12
2023-04-17T05:45:57.475Z,53.12
2023-04-17T05:48:33.713Z,53.22
2023-04-17T05:51:09.500Z,52.62
2023-04-17T05:53:47.464Z,52.74
2023-04-17T05:56:18.800Z,53.00
2023-04-17T05:58:48.167Z,52.61
2023-04-17T06:02:11.855Z,52.63
2023-04-17T06:05:45.786Z,52.29
2023-04-17T06:08:48.821Z,52.56
2023-04-17T06:11:42.956Z,52.80
2023-04-17T06:14:19.112Z,51.89
2023-04-17T06:18:05.898Z,50.99
2023-04-17T06:20:52.202Z,50.58
2023-04-17T06:28:37.651Z,50.36
2023-04-17T06:35:43.604Z,49.73
2023-04-17T06:39:29.610Z,49.35
2023-04-17T06:42:45.498Z,48.43
2023-04-17T06:46:19.467Z,48.36
2023-04-17T06:50:01.270Z,48.77
2023-04-17T06:52:33.716Z,49.29
2023-04-17T06:55:16.965Z,49.19
2023-04-17T06:58:09.584Z,47.98
2023-04-17T07:01:00.155Z,47.87
2023-04-17T07:03:41.127Z,47.67
2023-04-17T07:06:24.557Z,47.67
2023-04-17T07:09:02.986Z,47.47
2023-04-17T07:11:37.910Z,47.19
2023-04-17T07:14:13.195Z,46.55
2023-04-17T07:16:45.773Z,46.23
2023-04-17T07:20:13.095Z,46.10
2023-04-17T07:23:16.945Z,46.17
2023-04-17T07:25:58.543Z,46.04
2023-04-17T07:28:50.271Z,46.07
2023-04-17T07:33:02.757Z,46.76
2023-04-17T07:35:40.205Z,47.03
2023-04-17T07:39:34.343Z,47.45
2023-04-17T07:42:44.960Z,47.43
2023-04-17T07:45:59.639Z,47.51
2023-04-17T07:49:11.450Z,48.17
2023-04-17T08:12:56.557Z,46.35
2023-04-17T08:20:13.976Z,45.67
2023-04-17T08:23:30.526Z,46.07
2023-04-17T08:30:28.337Z,45.44
2023-04-17T08:37:47.494Z,45.68
2023-04-17T08:41:23.889Z,46.25
2023-04-17T08:45:59.038Z,45.84
2023-04-17T08:53:07.651Z,45.34
2023-04-17T08:57:36.344Z,45.38
2023-04-17T09:33:41.842Z,42.45
2023-04-17T09:50:42.923Z,43.48
2023-04-17T10:12:28.595Z,40.60
2023-04-17T10:26:49.111Z,40.52
2023-04-17T11:03:20.990Z,36.95
2023-04-17T11:06:59.894Z,37.51
2023-04-17T11:10:09.888Z,37.50
2023-04-17T11:13:07.912Z,37.23
2023-04-17T11:15:59.108Z,37.22
2023-04-17T11:19:04.569Z,36.79
2023-04-17T11:22:04.378Z,36.99
2023-04-17T11:24:50.980Z,36.93
2023-04-17T11:28:08.808Z,36.72
2023-04-17T11:31:07.121Z,35.99
2023-04-17T11:39:11.402Z,36.23
2023-04-17T11:42:14.532Z,36.35
2023-04-17T11:53:46.507Z,34.29
2023-04-17T11:56:34.644Z,34.28
2023-04-17T11:59:47.324Z,34.34
2023-04-17T12:03:25.509Z,33.97
2023-04-17T12:06:24.361Z,34.24
2023-04-17T12:09:58.742Z,34.09
2023-04-17T12:13:19.470Z,33.86
2023-04-17T12:20:04.672Z,33.40
2023-04-17T12:22:48.097Z,33.45
2023-04-17T12:29:44.499Z,33.27
2023-04-17T12:33:02.018Z,33.13
2023-04-17T12:44:11.392Z,34.03
2023-04-17T12:47:51.914Z,34.11
2023-04-17T12:51:39.429Z,34.21
2023-04-17T13:11:49.807Z,33.13
2023-04-17T13:18:02.323Z,32.62
2023-04-17T13:22:13.295Z,32.44
2023-04-17T14:35:52.855Z,32.19
2023-04-17T15:00:36.384Z,31.97
2023-04-17T15:03:36.853Z,32.35
2023-04-17T15:39:08.566Z,34.04
2023-04-17T18:14:33.546Z,38.88
2023-04-17T18:18:29.168Z,39.06
2023-04-17T18:21:51.783Z,39.12
2023-04-17T19:39:38.876Z,39.75
2023-04-17T19:54:49.447Z,40.52
2023-04-17T21:59:22.157Z,45.18
2023-04-17T22:06:04.197Z,45.66
2023-04-17T22:09:01.194Z,45.65
2023-04-17T22:27:16.641Z,47.31
2023-04-17T22:51:51.666Z,47.93
2023-04-17T22:59:37.635Z,48.39
2023-04-17T23:02:39.518Z,48.59
2023-04-17T23:05:18.774Z,49.09
2023-04-17T23:08:15.595Z,49.08
2023-04-17T23:11:21.794Z,49.38
2023-04-17T23:14:17.777Z,49.69
2023-04-17T23:16:52.699Z,49.75
2023-04-17T23:19:28.150Z,49.42
2023-04-17T23:25:20.160Z,49.15
2023-04-17T23:28:02.236Z,49.69
2023-04-17T23:31:24.400Z,50.29
2023-04-17T23:34:37.224Z,50.66
2023-04-17T23:37:39.455Z,50.88
2023-04-17T23:40:15.918Z,51.61
2023-04-17T23:42:50.828Z,51.96
2023-04-17T23:49:47.298Z,52.34
2023-04-17T23:52:19.966Z,52.75
2023-04-17T23:55:21.013Z,52.83
2023-04-17T23:57:54.532Z,53.22
